createdAt,value
2022-12-01T00:00:56.733Z,36.45
2022-12-01T00:03:27.631Z,33.15
2022-12-01T00:06:09.431Z,35.43
2022-12-01T00:08:40.376Z,35.78
2022-12-01T00:11:15.243Z,36.03
2022-12-01T00:13:45.545Z,36.50
2022-12-01T00:16:17.915Z,37.70
2022-12-01T00:18:53.714Z,37.48
2022-12-01T00:21:26.561Z,39.53
2022-12-01T00:23:58.707Z,37.73
2022-12-01T00:26:29.382Z,36.85
2022-12-01T00:29:00.803Z,35.40
2022-12-01T00:31:31.852Z,38.50
2022-12-01T00:34:05.687Z,34.20
2022-12-01T00:36:34.515Z,36.93
2022-12-01T00:39:04.905Z,34.38
2022-12-01T00:41:35.429Z,34.55
2022-12-01T00:44:06.528Z,36.70
2022-12-01T00:46:36.923Z,37.63
2022-12-01T00:49:07.222Z,35.45
2022-12-01T00:51:37.489Z,33.90
2022-12-01T00:54:07.799Z,33.15
2022-12-01T00:56:38.503Z,34.45
2022-12-01T00:59:09.421Z,31.40
2022-12-01T01:01:40.261Z,30.12
2022-12-01T01:04:10.576Z,30.70
2022-12-01T01:06:42.490Z,32.25
2022-12-01T01:09:14.014Z,34.05
2022-12-01T01:11:44.742Z,33.38
2022-12-01T01:14:15.421Z,30.00
2022-12-01T01:16:45.737Z,32.63
2022-12-01T01:19:16.899Z,30.20
2022-12-01T01:21:47.271Z,28.50
2022-12-01T01:24:17.847Z,27.62
2022-12-01T01:26:48.944Z,27.37
2022-12-01T01:29:19.393Z,28.27
2022-12-01T01:31:49.703Z,28.20
2022-12-01T01:34:20.362Z,26.35
2022-12-01T01:36:50.675Z,25.55
2022-12-01T01:39:21.151Z,27.52
2022-12-01T01:41:52.979Z,25.70
2022-12-01T01:44:56.908Z,26.82
2022-12-01T01:47:33.018Z,27.80
2022-12-01T01:50:12.735Z,28.05
2022-12-01T01:52:47.659Z,31.73
2022-12-01T01:55:18.730Z,29.55
2022-12-01T01:57:50.283Z,34.15
2022-12-01T02:00:22.687Z,34.18
2022-12-01T02:02:54.305Z,34.65
2022-12-01T02:05:27.803Z,35.48
2022-12-01T02:08:00.500Z,37.35
2022-12-01T02:10:36.827Z,39.58
2022-12-01T02:13:36.303Z,39.08
2022-12-01T02:16:25.956Z,41.25
2022-12-01T02:19:14.898Z,44.13
2022-12-01T02:22:06.735Z,44.60
2022-12-01T02:24:56.814Z,43.60
2022-12-01T02:27:36.534Z,43.78
2022-12-01T02:30:13.165Z,44.38
2022-12-01T02:33:07.659Z,46.83
2022-12-01T02:35:41.298Z,45.45
2022-12-01T02:38:20.844Z,44.50
2022-12-01T02:41:00.069Z,45.55
2022-12-01T02:44:02.462Z,45.75
2022-12-01T02:46:38.371Z,48.87
2022-12-01T02:49:11.921Z,48.87
2022-12-01T02:51:46.443Z,47.48
2022-12-01T02:54:18.198Z,42.27
2022-12-01T02:56:52.848Z,47.08
2022-12-01T02:59:23.394Z,46.88
2022-12-01T03:02:00.476Z,48.68
2022-12-01T03:05:01.693Z,44.60
2022-12-01T03:07:44.654Z,48.20
2022-12-01T03:10:21.076Z,50.45
2022-12-01T03:13:10.340Z,46.05
2022-12-01T03:15:55.891Z,49.23
2022-12-01T03:21:13.366Z,46.18
2022-12-01T03:23:51.340Z,46.68
2022-12-01T03:26:24.816Z,44.80
2022-12-01T03:28:58.533Z,45.78
2022-12-01T03:31:32.006Z,43.25
2022-12-01T03:34:11.596Z,43.68
2022-12-01T03:36:45.215Z,45.83
2022-12-01T03:39:20.233Z,44.05
2022-12-01T03:41:53.827Z,43.92
2022-12-01T03:44:27.701Z,45.38
2022-12-01T03:47:07.176Z,45.48
2022-12-01T03:49:39.182Z,47.55
2022-12-01T03:52:30.631Z,45.38
2022-12-01T03:55:22.718Z,43.10
2022-12-01T03:58:08.119Z,40.92
2022-12-01T04:00:39.101Z,42.08
2022-12-01T04:03:09.687Z,40.80
2022-12-01T04:05:40.607Z,41.08
2022-12-01T04:08:11.660Z,39.92
2022-12-01T04:10:42.232Z,39.83
2022-12-01T04:13:14.437Z,41.80
2022-12-01T04:15:45.598Z,41.20
2022-12-01T04:18:16.391Z,38.42
2022-12-01T04:20:48.507Z,40.50
2022-12-01T04:23:37.306Z,38.63
2022-12-01T04:26:15.495Z,38.70
2022-12-01T04:28:42.406Z,40.45
2022-12-01T04:31:14.922Z,39.92
2022-12-01T04:33:46.901Z,40.70
2022-12-01T04:36:17.370Z,40.55
2022-12-01T04:38:49.125Z,37.83
2022-12-01T04:41:19.846Z,37.05
2022-12-01T04:43:50.672Z,37.08
2022-12-01T04:46:21.803Z,38.70
2022-12-01T04:48:53.561Z,36.33
2022-12-01T04:51:25.470Z,37.67
2022-12-01T04:53:57.397Z,35.80
2022-12-01T04:56:28.130Z,37.65
2022-12-01T04:58:59.810Z,35.92
2022-12-01T05:01:30.676Z,36.35
2022-12-01T05:04:02.919Z,33.38
2022-12-01T05:06:33.672Z,34.27
2022-12-01T05:09:05.229Z,31.50
2022-12-01T05:11:37.042Z,34.95
2022-12-01T05:14:08.258Z,33.15
2022-12-01T05:16:38.914Z,33.53
2022-12-01T05:19:27.567Z,30.82
2022-12-01T05:21:58.506Z,32.42
2022-12-01T05:24:29.375Z,31.25
2022-12-01T05:26:59.879Z,32.13
2022-12-01T05:29:33.257Z,32.65
2022-12-01T05:32:04.002Z,33.48
2022-12-01T05:34:36.548Z,33.08
2022-12-01T05:37:07.286Z,33.90
2022-12-01T05:39:40.462Z,30.92
2022-12-01T05:42:11.004Z,30.32
2022-12-01T05:44:42.071Z,35.45
2022-12-01T05:47:13.211Z,33.75
2022-12-01T05:49:43.782Z,34.53
2022-12-01T05:52:14.358Z,34.98
2022-12-01T05:54:44.878Z,35.90
2022-12-01T05:57:15.358Z,33.28
2022-12-01T05:59:47.633Z,34.70
2022-12-01T06:02:18.677Z,29.52
2022-12-01T06:04:49.413Z,31.23
2022-12-01T06:07:20.818Z,29.85
2022-12-01T06:09:51.605Z,30.20
2022-12-01T06:12:24.333Z,27.15
2022-12-01T06:14:54.896Z,30.72
2022-12-01T06:17:25.390Z,30.32
2022-12-01T06:19:57.237Z,28.83
2022-12-01T06:22:27.793Z,29.48
2022-12-01T06:24:58.918Z,28.83
2022-12-01T06:27:29.886Z,27.40
2022-12-01T06:30:00.429Z,27.37
2022-12-01T06:32:30.885Z,27.93
2022-12-01T06:35:01.389Z,26.48
2022-12-01T06:37:31.877Z,27.52
2022-12-01T06:40:02.414Z,27.80
2022-12-01T06:42:33.458Z,29.48
2022-12-01T06:45:03.836Z,27.37
2022-12-01T06:47:35.101Z,27.77
2022-12-01T06:50:10.183Z,31.57
2022-12-01T06:52:41.362Z,31.40
2022-12-01T06:55:11.818Z,29.55
2022-12-01T06:57:43.666Z,30.72
2022-12-01T07:00:15.454Z,30.50
2022-12-01T07:02:46.621Z,27.25
2022-12-01T07:05:17.450Z,30.12
2022-12-01T07:07:48.013Z,28.83
2022-12-01T07:10:18.525Z,27.77
2022-12-01T07:12:49.051Z,29.70
2022-12-01T07:15:19.822Z,30.35
2022-12-01T07:17:50.683Z,31.42
2022-12-01T07:20:21.311Z,31.00
2022-12-01T07:22:51.806Z,31.90
2022-12-01T07:25:22.309Z,31.10
2022-12-01T07:27:53.006Z,32.60
2022-12-01T07:30:28.270Z,32.10
2022-12-01T07:32:56.333Z,28.23
2022-12-01T07:35:27.042Z,31.00
2022-12-01T07:37:58.701Z,29.50
2022-12-01T07:40:29.125Z,28.35
2022-12-01T07:43:01.242Z,32.88
2022-12-01T07:45:32.326Z,32.25
2022-12-01T07:48:04.047Z,39.85
2022-12-01T07:50:34.610Z,42.20
2022-12-01T07:53:05.237Z,43.68
2022-12-01T07:55:37.296Z,45.05
2022-12-01T07:58:12.115Z,43.30
2022-12-01T08:00:43.770Z,39.08
2022-12-01T08:03:15.126Z,38.10
2022-12-01T08:05:47.215Z,39.10
2022-12-01T08:08:18.153Z,36.83
2022-12-01T08:10:48.685Z,35.23
2022-12-01T08:13:21.135Z,34.95
2022-12-01T08:15:51.664Z,29.12
2022-12-01T08:18:24.466Z,29.00
2022-12-01T08:20:59.553Z,29.18
2022-12-01T08:23:30.058Z,29.35
2022-12-01T08:26:12.730Z,29.70
2022-12-01T08:28:44.161Z,27.48
2022-12-01T08:31:20.682Z,26.93
2022-12-01T08:33:57.644Z,30.25
2022-12-01T08:36:29.238Z,29.87
2022-12-01T08:39:00.642Z,28.98
2022-12-01T08:41:32.812Z,29.02
2022-12-01T08:44:04.332Z,29.40
2022-12-01T08:46:36.279Z,32.30
2022-12-01T08:49:07.946Z,32.23
2022-12-01T08:51:38.915Z,34.10
2022-12-01T08:54:10.934Z,32.38
2022-12-01T08:56:46.251Z,34.08
2022-12-01T08:59:16.674Z,32.83
2022-12-01T09:01:58.991Z,30.08
2022-12-01T09:04:29.778Z,29.80
2022-12-01T09:07:00.820Z,30.95
2022-12-01T09:09:31.888Z,29.90
2022-12-01T09:12:02.525Z,28.12
2022-12-01T09:14:33.141Z,30.08
2022-12-01T09:17:03.657Z,29.98
2022-12-01T09:19:35.074Z,30.23
2022-12-01T09:22:07.279Z,29.85
2022-12-01T09:24:37.828Z,23.27
2022-12-01T09:27:08.474Z,24.98
2022-12-01T09:29:41.411Z,24.47
2022-12-01T09:32:12.136Z,23.77
2022-12-01T09:34:43.078Z,25.80
2022-12-01T09:37:13.777Z,21.42
2022-12-01T09:39:44.254Z,20.27
2022-12-01T09:42:20.437Z,21.35
2022-12-01T09:44:58.381Z,21.57
2022-12-01T09:47:31.881Z,25.17
2022-12-01T09:50:22.045Z,19.87
2022-12-01T09:53:00.032Z,22.32
2022-12-01T09:55:33.094Z,22.62
2022-12-01T09:58:06.033Z,25.95
2022-12-01T10:00:40.014Z,24.12
2022-12-01T10:03:40.801Z,26.45
2022-12-01T10:06:27.113Z,27.65
2022-12-01T10:08:55.501Z,25.62
2022-12-01T10:11:35.253Z,24.82
2022-12-01T10:14:07.441Z,23.25
2022-12-01T10:16:43.988Z,23.57
2022-12-01T10:19:20.281Z,25.85
2022-12-01T10:22:11.405Z,26.90
2022-12-01T10:25:04.520Z,20.77
2022-12-01T10:28:02.331Z,23.30
2022-12-01T10:30:36.124Z,21.68
2022-12-01T10:33:18.599Z,21.75
2022-12-01T10:35:49.074Z,22.35
2022-12-01T10:38:25.246Z,22.22
2022-12-01T10:40:59.657Z,23.98
2022-12-01T10:43:37.032Z,22.27
2022-12-01T10:46:13.224Z,21.37
2022-12-01T10:48:56.005Z,20.75
2022-12-01T10:51:28.434Z,20.60
2022-12-01T10:54:11.620Z,21.82
2022-12-01T10:56:47.257Z,20.15
2022-12-01T10:59:38.914Z,22.80
2022-12-01T11:02:18.149Z,21.75
2022-12-01T11:04:58.860Z,21.37
2022-12-01T11:07:35.102Z,22.35
2022-12-01T11:10:31.324Z,19.82
2022-12-01T11:13:05.796Z,20.08
2022-12-01T11:15:42.961Z,20.27
2022-12-01T11:18:31.706Z,23.70
2022-12-01T11:21:16.950Z,22.58
2022-12-01T11:23:52.521Z,22.67
2022-12-01T11:26:25.838Z,20.97
2022-12-01T11:29:07.890Z,19.37
2022-12-01T11:31:41.578Z,19.25
2022-12-01T11:34:34.628Z,20.40
2022-12-01T11:37:11.045Z,19.92
2022-12-01T11:39:43.460Z,19.75
2022-12-01T11:42:16.862Z,19.95
2022-12-01T11:45:02.667Z,21.35
2022-12-01T11:50:05.745Z,19.85
2022-12-01T11:52:40.544Z,19.17
2022-12-01T11:55:17.968Z,21.70
2022-12-01T11:57:52.773Z,18.75
2022-12-01T12:00:26.546Z,19.05
2022-12-01T12:03:22.484Z,19.85
2022-12-01T12:06:11.713Z,18.85
2022-12-01T12:08:41.946Z,17.45
2022-12-01T12:11:24.749Z,17.12
2022-12-01T12:14:28.871Z,17.85
2022-12-01T12:17:20.776Z,18.30
2022-12-01T12:20:23.470Z,16.37
2022-12-01T12:23:15.177Z,15.23
2022-12-01T12:25:48.869Z,17.92
2022-12-01T12:28:38.972Z,17.57
2022-12-01T12:31:12.510Z,20.70
2022-12-01T12:34:01.044Z,18.17
2022-12-01T12:36:46.283Z,17.45
2022-12-01T12:39:31.515Z,19.25
2022-12-01T12:42:04.928Z,17.25
2022-12-01T12:44:39.561Z,17.12
2022-12-01T12:47:16.894Z,16.75
2022-12-01T12:50:11.443Z,16.62
2022-12-01T12:52:45.247Z,21.70
2022-12-01T12:55:24.144Z,17.65
2022-12-01T12:58:15.798Z,18.92
2022-12-01T13:00:51.953Z,17.45
2022-12-01T13:03:33.747Z,17.12
2022-12-01T13:06:07.482Z,19.82
2022-12-01T13:08:42.089Z,21.68
2022-12-01T13:11:27.300Z,28.50
2022-12-01T13:14:03.407Z,28.38
2022-12-01T13:16:42.668Z,19.57
2022-12-01T13:19:19.858Z,18.32
2022-12-01T13:21:53.130Z,20.43
2022-12-01T13:24:27.871Z,18.33
2022-12-01T13:27:07.291Z,17.42
2022-12-01T13:29:44.006Z,19.70
2022-12-01T13:32:32.374Z,18.42
2022-12-01T13:35:08.543Z,18.50
2022-12-01T13:37:40.299Z,18.48
2022-12-01T13:40:22.588Z,19.85
2022-12-01T13:43:10.609Z,12.18
2022-12-01T13:45:41.086Z,10.63
2022-12-01T13:48:32.148Z,10.78
2022-12-01T13:51:05.028Z,13.72
2022-12-01T13:53:39.664Z,12.35
2022-12-01T13:56:20.227Z,16.55
2022-12-01T13:58:55.290Z,15.50
2022-12-01T14:01:30.441Z,16.85
2022-12-01T14:04:19.087Z,15.18
2022-12-01T14:06:51.336Z,14.63
2022-12-01T14:09:31.784Z,12.82
2022-12-01T14:12:05.278Z,10.38
2022-12-01T14:14:41.686Z,7.45
2022-12-01T14:17:26.860Z,7.37
2022-12-01T14:19:59.164Z,7.90
2022-12-01T14:22:35.442Z,7.70
2022-12-01T14:25:25.925Z,7.85
2022-12-01T14:27:58.813Z,6.00
2022-12-01T14:30:46.842Z,4.90
2022-12-01T14:33:42.809Z,5.60
2022-12-01T14:36:28.193Z,5.85
2022-12-01T14:39:04.703Z,7.08
2022-12-01T14:41:56.364Z,5.35
2022-12-01T14:44:36.249Z,5.83
2022-12-01T14:47:22.690Z,4.85
2022-12-01T14:50:28.148Z,7.78
2022-12-01T14:53:01.416Z,5.92
2022-12-01T14:55:35.955Z,15.77
2022-12-01T14:58:15.292Z,10.00
2022-12-01T15:01:12.633Z,8.53
2022-12-01T15:03:52.305Z,5.62
2022-12-01T15:06:28.467Z,5.17
2022-12-01T15:12:02.486Z,8.18
2022-12-01T15:14:38.434Z,11.08
2022-12-01T15:17:09.342Z,13.10
2022-12-01T15:19:44.106Z,23.57
2022-12-01T15:22:18.363Z,31.25
2022-12-01T15:24:49.249Z,30.17
2022-12-01T15:27:31.883Z,19.50
2022-12-01T15:30:04.940Z,11.40
2022-12-01T15:32:39.532Z,14.10
2022-12-01T15:35:13.015Z,13.00
2022-12-01T15:37:46.826Z,10.75
2022-12-01T15:43:20.385Z,10.88
2022-12-01T15:45:53.916Z,13.93
2022-12-01T15:48:33.607Z,13.20
2022-12-01T15:51:11.040Z,17.70
2022-12-01T15:53:54.239Z,17.75
2022-12-01T15:56:36.452Z,14.78
2022-12-01T15:59:14.986Z,12.35
2022-12-01T16:01:46.290Z,12.20
2022-12-01T16:04:19.685Z,14.23
2022-12-01T16:07:02.283Z,12.40
2022-12-01T16:09:57.846Z,15.70
2022-12-01T16:12:32.414Z,14.90
2022-12-01T16:15:10.271Z,15.00
2022-12-01T16:17:46.624Z,15.63
2022-12-01T16:20:28.659Z,16.55
2022-12-01T16:23:01.947Z,17.32
2022-12-01T16:25:38.247Z,13.22
2022-12-01T16:28:23.885Z,16.35
2022-12-01T16:30:55.201Z,16.30
2022-12-01T16:33:27.834Z,17.55
2022-12-01T16:36:00.664Z,21.00
2022-12-01T16:38:32.033Z,22.42
2022-12-01T16:41:05.623Z,23.87
2022-12-01T16:43:36.204Z,26.55
2022-12-01T16:46:09.681Z,25.77
2022-12-01T16:48:41.408Z,26.20
2022-12-01T16:51:14.725Z,24.00
2022-12-01T16:53:51.125Z,25.60
2022-12-01T16:56:21.525Z,23.85
2022-12-01T16:58:51.916Z,24.07
2022-12-01T17:01:22.483Z,24.25
2022-12-01T17:03:53.954Z,22.85
2022-12-01T17:06:25.899Z,22.95
2022-12-01T17:09:00.412Z,25.92
2022-12-01T17:11:30.971Z,21.80
2022-12-01T17:14:01.611Z,23.87
2022-12-01T17:16:32.244Z,24.60
2022-12-01T17:19:04.576Z,26.73
2022-12-01T17:21:35.087Z,27.32
2022-12-01T17:24:05.728Z,28.75
2022-12-01T17:26:37.513Z,26.37
2022-12-01T17:29:07.998Z,25.60
2022-12-01T17:31:39.731Z,26.70
2022-12-01T17:34:11.392Z,30.43
2022-12-01T17:36:41.966Z,25.90
2022-12-01T17:39:12.402Z,28.10
2022-12-01T17:41:42.921Z,29.55
2022-12-01T17:44:13.384Z,32.13
2022-12-01T17:46:43.894Z,29.37
2022-12-01T17:49:14.400Z,27.13
2022-12-01T17:51:44.865Z,27.80
2022-12-01T17:54:15.441Z,28.65
2022-12-01T17:56:47.222Z,29.27
2022-12-01T17:59:18.906Z,28.20
2022-12-01T18:01:50.668Z,29.57
2022-12-01T18:04:21.194Z,28.52
2022-12-01T18:06:54.222Z,29.27
2022-12-01T18:09:25.391Z,29.45
2022-12-01T18:11:57.323Z,33.35
2022-12-01T18:14:28.560Z,31.25
2022-12-01T18:16:59.093Z,35.60
2022-12-01T18:19:29.532Z,35.92
2022-12-01T18:22:00.123Z,31.55
2022-12-01T18:24:31.904Z,35.40
2022-12-01T18:27:02.452Z,34.83
2022-12-01T18:29:34.006Z,33.42
2022-12-01T18:32:04.481Z,32.45
2022-12-01T18:34:35.064Z,32.03
2022-12-01T18:37:06.245Z,30.92
2022-12-01T18:39:36.738Z,30.48
2022-12-01T18:42:07.275Z,34.50
2022-12-01T18:44:39.082Z,33.23
2022-12-01T18:47:09.960Z,32.50
2022-12-01T18:49:40.487Z,31.80
2022-12-01T18:52:11.127Z,32.17
2022-12-01T18:54:41.636Z,32.83
2022-12-01T18:57:14.873Z,34.70
2022-12-01T18:59:45.412Z,35.45
2022-12-01T19:02:16.138Z,33.45
2022-12-01T19:04:50.545Z,34.20
2022-12-01T19:07:26.499Z,36.23
2022-12-01T19:09:53.784Z,34.25
2022-12-01T19:12:25.472Z,34.10
2022-12-01T19:14:56.041Z,36.08
2022-12-01T19:17:26.683Z,34.25
2022-12-01T19:19:57.159Z,37.13
2022-12-01T19:22:27.759Z,34.90
2022-12-01T19:24:58.314Z,34.63
2022-12-01T19:27:30.677Z,34.08
2022-12-01T19:30:01.193Z,36.30
2022-12-01T19:32:35.258Z,35.35
2022-12-01T19:35:06.583Z,37.78
2022-12-01T19:37:37.058Z,35.85
2022-12-01T19:40:08.507Z,35.03
2022-12-01T19:42:38.998Z,34.48
2022-12-01T19:45:10.411Z,35.15
2022-12-01T19:47:40.931Z,34.65
2022-12-01T19:50:11.894Z,35.45
2022-12-01T19:52:42.617Z,35.85
2022-12-01T19:55:13.129Z,35.28
2022-12-01T19:57:43.626Z,36.05
2022-12-01T20:00:14.696Z,35.40
2022-12-01T20:02:45.148Z,37.10
2022-12-01T20:05:16.088Z,34.45
2022-12-01T20:07:47.750Z,38.58
2022-12-01T20:10:20.163Z,36.95
2022-12-01T20:12:51.635Z,40.58
2022-12-01T20:15:22.371Z,39.33
2022-12-01T20:17:53.951Z,37.10
2022-12-01T20:20:24.501Z,35.05
2022-12-01T20:22:56.377Z,33.65
2022-12-01T20:25:27.057Z,32.85
2022-12-01T20:27:57.636Z,35.50
2022-12-01T20:30:28.149Z,36.30
2022-12-01T20:32:58.618Z,37.53
2022-12-01T20:35:29.199Z,34.95
2022-12-01T20:37:59.696Z,39.25
2022-12-01T20:40:30.192Z,36.53
2022-12-01T20:43:00.650Z,35.95
2022-12-01T20:45:31.230Z,36.00
2022-12-01T20:48:01.729Z,36.17
2022-12-01T20:50:32.228Z,35.60
2022-12-01T20:53:02.803Z,34.98
2022-12-01T20:55:33.441Z,36.20
2022-12-01T20:58:04.734Z,34.55
2022-12-01T21:00:35.782Z,33.38
2022-12-01T21:03:07.947Z,35.38
2022-12-01T21:05:40.844Z,37.63
2022-12-01T21:08:13.557Z,34.20
2022-12-01T21:10:46.506Z,36.38
2022-12-01T21:13:42.444Z,33.30
2022-12-01T21:16:23.109Z,38.05
2022-12-01T21:18:59.149Z,34.75
2022-12-01T21:21:33.437Z,32.73
2022-12-01T21:24:19.772Z,34.55
2022-12-01T21:27:02.067Z,35.52
2022-12-01T21:29:40.969Z,34.75
2022-12-01T21:32:15.717Z,33.60
2022-12-01T21:34:48.190Z,35.00
2022-12-01T21:37:24.165Z,34.40
2022-12-01T21:39:56.502Z,34.65
2022-12-01T21:42:29.298Z,33.95
2022-12-01T21:44:59.796Z,33.70
2022-12-01T21:47:31.772Z,34.60
2022-12-01T21:50:06.845Z,33.05
2022-12-01T21:52:43.022Z,34.92
2022-12-01T21:55:19.389Z,35.10
2022-12-01T21:57:51.994Z,33.48
2022-12-01T22:00:36.772Z,36.35
2022-12-01T22:03:28.208Z,37.98
2022-12-01T22:08:44.763Z,41.08
2022-12-01T22:11:22.232Z,42.15
2022-12-01T22:14:11.017Z,40.17
2022-12-01T22:16:46.636Z,42.00
2022-12-01T22:19:25.799Z,39.30
2022-12-01T22:22:11.116Z,40.23
2022-12-01T22:24:46.945Z,41.33
2022-12-01T22:27:39.721Z,38.15
2022-12-01T22:30:13.119Z,39.13
2022-12-01T22:33:01.436Z,42.50
2022-12-01T22:35:37.934Z,39.60
2022-12-01T22:38:11.368Z,41.60
2022-12-01T22:40:51.647Z,38.63
2022-12-01T22:43:46.402Z,38.00
2022-12-01T22:46:31.769Z,37.38
2022-12-01T22:49:11.021Z,37.65
2022-12-01T22:51:55.799Z,36.93
2022-12-01T22:54:32.226Z,36.58
2022-12-01T22:57:14.861Z,33.23
2022-12-01T22:59:47.835Z,38.20
2022-12-01T23:02:30.259Z,33.08
2022-12-01T23:05:02.978Z,29.05
2022-12-01T23:07:41.665Z,27.93
2022-12-01T23:10:18.291Z,25.08
2022-12-01T23:12:51.289Z,27.25
2022-12-01T23:15:43.003Z,23.25
2022-12-01T23:18:19.104Z,23.73
2022-12-01T23:20:58.592Z,26.77
2022-12-01T23:23:34.366Z,26.73
2022-12-01T23:26:07.431Z,30.23
2022-12-01T23:28:40.826Z,26.77
2022-12-01T23:31:12.007Z,25.12
2022-12-01T23:33:42.548Z,29.90
2022-12-01T23:36:21.724Z,29.55
2022-12-01T23:38:55.182Z,28.92
2022-12-01T23:41:40.680Z,30.88
2022-12-01T23:46:45.844Z,29.57
2022-12-01T23:49:19.818Z,28.27
2022-12-01T23:51:56.391Z,30.32
2022-12-01T23:57:07.288Z,28.50
2022-12-01T23:59:39.576Z,31.40
